sensor_id;sensor_type;location;lat;lon;timestamp;P1;durP1;ratioP1;P2;durP2;ratioP2
61905;SDS011;47863;55.766;37.672;2024-03-08T00:01:30;2.17;;;1.10;;
61905;SDS011;47863;55.766;37.672;2024-03-08T00:03:56;2.38;;;1.30;;
61905;SDS011;47863;55.766;37.672;2024-03-08T00:06:22;2.78;;;1.10;;
61905;SDS011;47863;55.766;37.672;2024-03-08T00:08:48;2.20;;;1.10;;
61905;SDS011;47863;55.766;37.672;2024-03-08T00:11:13;4.07;;;1.63;;
61905;SDS011;47863;55.766;37.672;2024-03-08T00:13:39;1.45;;;0.80;;
61905;SDS011;47863;55.766;37.672;2024-03-08T00:16:05;2.92;;;1.30;;
61905;SDS011;47863;55.766;37.672;2024-03-08T00:18:30;3.17;;;1.35;;
61905;SDS011;47863;55.766;37.672;2024-03-08T00:20:56;3.83;;;1.77;;
61905;SDS011;47863;55.766;37.672;2024-03-08T00:23:22;2.63;;;1.20;;
61905;SDS011;47863;55.766;37.672;2024-03-08T00:25:48;4.40;;;1.50;;
61905;SDS011;47863;55.766;37.672;2024-03-08T00:28:14;2.63;;;1.13;;
61905;SDS011;47863;55.766;37.672;2024-03-08T00:30:42;2.25;;;1.40;;
61905;SDS011;47863;55.766;37.672;2024-03-08T00:33:08;4.35;;;1.50;;
61905;SDS011;47863;55.766;37.672;2024-03-08T00:35:34;4.32;;;1.65;;
61905;SDS011;47863;55.766;37.672;2024-03-08T00:37:59;2.88;;;1.35;;
61905;SDS011;47863;55.766;37.672;2024-03-08T00:40:25;2.05;;;1.13;;
61905;SDS011;47863;55.766;37.672;2024-03-08T00:42:51;3.55;;;1.48;;
61905;SDS011;47863;55.766;37.672;2024-03-08T00:45:18;2.83;;;1.20;;
61905;SDS011;47863;55.766;37.672;2024-03-08T00:47:44;2.65;;;1.00;;
61905;SDS011;47863;55.766;37.672;2024-03-08T00:50:10;4.97;;;2.08;;
61905;SDS011;47863;55.766;37.672;2024-03-08T00:52:36;3.33;;;1.40;;
61905;SDS011;47863;55.766;37.672;2024-03-08T00:55:02;3.25;;;1.30;;
61905;SDS011;47863;55.766;37.672;2024-03-08T00:57:29;2.67;;;1.10;;
61905;SDS011;47863;55.766;37.672;2024-03-08T00:59:55;2.47;;;1.08;;
61905;SDS011;47863;55.766;37.672;2024-03-08T01:02:21;2.15;;;1.10;;
61905;SDS011;47863;55.766;37.672;2024-03-08T01:04:48;3.20;;;1.50;;
61905;SDS011;47863;55.766;37.672;2024-03-08T01:07:14;3.90;;;1.95;;
61905;SDS011;47863;55.766;37.672;2024-03-08T01:09:40;3.55;;;1.40;;
61905;SDS011;47863;55.766;37.672;2024-03-08T01:12:06;1.92;;;0.90;;
61905;SDS011;47863;55.766;37.672;2024-03-08T01:14:33;1.40;;;0.90;;
61905;SDS011;47863;55.766;37.672;2024-03-08T01:16:59;3.03;;;1.65;;
61905;SDS011;47863;55.766;37.672;2024-03-08T01:19:25;6.72;;;1.50;;
61905;SDS011;47863;55.766;37.672;2024-03-08T01:21:50;3.45;;;1.52;;
61905;SDS011;47863;55.766;37.672;2024-03-08T01:24:16;2.03;;;1.00;;
61905;SDS011;47863;55.766;37.672;2024-03-08T01:26:42;3.10;;;1.40;;
61905;SDS011;47863;55.766;37.672;2024-03-08T01:29:08;3.67;;;1.50;;
61905;SDS011;47863;55.766;37.672;2024-03-08T01:31:33;3.47;;;1.20;;
61905;SDS011;47863;55.766;37.672;2024-03-08T01:34:01;2.97;;;1.40;;
61905;SDS011;47863;55.766;37.672;2024-03-08T01:36:27;4.20;;;1.45;;
61905;SDS011;47863;55.766;37.672;2024-03-08T01:38:53;2.25;;;1.20;;
61905;SDS011;47863;55.766;37.672;2024-03-08T01:41:19;2.80;;;1.30;;
61905;SDS011;47863;55.766;37.672;2024-03-08T01:43:45;1.77;;;0.93;;
61905;SDS011;47863;55.766;37.672;2024-03-08T01:46:12;2.55;;;1.25;;
61905;SDS011;47863;55.766;37.672;2024-03-08T01:48:41;1.70;;;0.98;;
61905;SDS011;47863;55.766;37.672;2024-03-08T01:51:08;3.05;;;1.48;;
61905;SDS011;47863;55.766;37.672;2024-03-08T01:53:34;3.38;;;1.58;;
61905;SDS011;47863;55.766;37.672;2024-03-08T01:56:01;2.83;;;1.35;;
61905;SDS011;47863;55.766;37.672;2024-03-08T01:58:28;4.57;;;1.55;;
61905;SDS011;47863;55.766;37.672;2024-03-08T02:00:56;3.08;;;1.48;;
61905;SDS011;47863;55.766;37.672;2024-03-08T02:03:25;3.78;;;1.58;;
61905;SDS011;47863;55.766;37.672;2024-03-08T02:05:51;2.20;;;1.10;;
61905;SDS011;47863;55.766;37.672;2024-03-08T02:08:17;1.77;;;0.98;;
61905;SDS011;47863;55.766;37.672;2024-03-08T02:10:44;4.00;;;1.70;;
61905;SDS011;47863;55.766;37.672;2024-03-08T02:13:11;2.15;;;0.85;;
61905;SDS011;47863;55.766;37.672;2024-03-08T02:18:42;3.67;;;1.30;;
61905;SDS011;47863;55.766;37.672;2024-03-08T02:21:07;2.72;;;1.40;;
61905;SDS011;47863;55.766;37.672;2024-03-08T02:23:36;2.15;;;1.00;;
61905;SDS011;47863;55.766;37.672;2024-03-08T02:26:02;1.77;;;1.15;;
61905;SDS011;47863;55.766;37.672;2024-03-08T02:28:29;3.60;;;1.75;;
61905;SDS011;47863;55.766;37.672;2024-03-08T02:30:55;1.75;;;1.00;;
61905;SDS011;47863;55.766;37.672;2024-03-08T02:33:22;2.40;;;1.17;;
61905;SDS011;47863;55.766;37.672;2024-03-08T02:35:49;1.92;;;1.00;;
61905;SDS011;47863;55.766;37.672;2024-03-08T02:38:17;3.05;;;1.60;;
61905;SDS011;47863;55.766;37.672;2024-03-08T02:40:45;3.92;;;1.80;;
61905;SDS011;47863;55.766;37.672;2024-03-08T02:43:12;2.72;;;1.20;;
61905;SDS011;47863;55.766;37.672;2024-03-08T02:45:40;2.53;;;1.10;;
61905;SDS011;47863;55.766;37.672;2024-03-08T02:48:07;2.78;;;1.30;;
61905;SDS011;47863;55.766;37.672;2024-03-08T02:50:33;1.35;;;0.90;;
61905;SDS011;47863;55.766;37.672;2024-03-08T02:53:03;3.58;;;1.55;;
61905;SDS011;47863;55.766;37.672;2024-03-08T02:55:29;4.55;;;2.08;;
61905;SDS011;47863;55.766;37.672;2024-03-08T02:57:55;2.45;;;1.00;;
61905;SDS011;47863;55.766;37.672;2024-03-08T03:00:21;3.85;;;1.52;;
61905;SDS011;47863;55.766;37.672;2024-03-08T03:02:51;2.83;;;1.23;;
61905;SDS011;47863;55.766;37.672;2024-03-08T03:05:19;2.88;;;1.50;;
61905;SDS011;47863;55.766;37.672;2024-03-08T03:07:45;4.43;;;1.75;;
61905;SDS011;47863;55.766;37.672;2024-03-08T03:10:11;3.80;;;1.40;;
61905;SDS011;47863;55.766;37.672;2024-03-08T03:15:10;4.38;;;1.80;;
61905;SDS011;47863;55.766;37.672;2024-03-08T03:17:37;3.15;;;1.10;;
61905;SDS011;47863;55.766;37.672;2024-03-08T03:20:04;3.90;;;1.50;;
61905;SDS011;47863;55.766;37.672;2024-03-08T03:22:36;5.90;;;2.58;;
61905;SDS011;47863;55.766;37.672;2024-03-08T03:25:02;4.72;;;1.95;;
61905;SDS011;47863;55.766;37.672;2024-03-08T03:27:29;4.45;;;1.70;;
61905;SDS011;47863;55.766;37.672;2024-03-08T03:29:58;3.13;;;1.55;;
61905;SDS011;47863;55.766;37.672;2024-03-08T03:32:23;4.07;;;1.40;;
61905;SDS011;47863;55.766;37.672;2024-03-08T03:34:49;4.70;;;2.30;;
61905;SDS011;47863;55.766;37.672;2024-03-08T03:37:21;2.95;;;1.58;;
61905;SDS011;47863;55.766;37.672;2024-03-08T03:39:46;2.45;;;1.40;;
61905;SDS011;47863;55.766;37.672;2024-03-08T03:42:17;3.08;;;1.42;;
61905;SDS011;47863;55.766;37.672;2024-03-08T03:44:44;5.43;;;2.13;;
61905;SDS011;47863;55.766;37.672;2024-03-08T03:47:11;2.42;;;1.30;;
61905;SDS011;47863;55.766;37.672;2024-03-08T03:49:36;3.13;;;1.55;;
61905;SDS011;47863;55.766;37.672;2024-03-08T03:52:02;4.18;;;2.13;;
61905;SDS011;47863;55.766;37.672;2024-03-08T03:54:30;3.17;;;1.45;;
61905;SDS011;47863;55.766;37.672;2024-03-08T03:56:56;4.78;;;1.98;;
61905;SDS011;47863;55.766;37.672;2024-03-08T03:59:21;4.10;;;1.60;;
61905;SDS011;47863;55.766;37.672;2024-03-08T04:01:47;4.88;;;2.55;;
61905;SDS011;47863;55.766;37.672;2024-03-08T04:04:15;7.10;;;2.53;;
61905;SDS011;47863;55.766;37.672;2024-03-08T04:06:41;5.32;;;2.22;;
61905;SDS011;47863;55.766;37.672;2024-03-08T04:09:07;4.35;;;2.15;;
61905;SDS011;47863;55.766;37.672;2024-03-08T04:11:33;4.85;;;2.10;;
61905;SDS011;47863;55.766;37.672;2024-03-08T04:13:58;5.20;;;2.72;;
61905;SDS011;47863;55.766;37.672;2024-03-08T04:16:24;4.75;;;1.63;;
61905;SDS011;47863;55.766;37.672;2024-03-08T04:18:51;4.90;;;2.08;;
61905;SDS011;47863;55.766;37.672;2024-03-08T04:21:17;5.05;;;1.92;;
61905;SDS011;47863;55.766;37.672;2024-03-08T04:23:44;3.50;;;1.42;;
61905;SDS011;47863;55.766;37.672;2024-03-08T04:26:10;4.07;;;1.95;;
61905;SDS011;47863;55.766;37.672;2024-03-08T04:28:36;4.38;;;2.05;;
61905;SDS011;47863;55.766;37.672;2024-03-08T04:31:05;5.32;;;2.10;;
61905;SDS011;47863;55.766;37.672;2024-03-08T04:33:32;7.05;;;2.55;;
61905;SDS011;47863;55.766;37.672;2024-03-08T04:36:01;6.90;;;3.03;;
61905;SDS011;47863;55.766;37.672;2024-03-08T04:38:29;5.15;;;2.05;;
61905;SDS011;47863;55.766;37.672;2024-03-08T04:40:56;5.63;;;2.60;;
61905;SDS011;47863;55.766;37.672;2024-03-08T04:43:22;4.43;;;2.05;;
61905;SDS011;47863;55.766;37.672;2024-03-08T04:45:52;4.35;;;2.15;;
61905;SDS011;47863;55.766;37.672;2024-03-08T04:48:19;4.20;;;1.80;;
61905;SDS011;47863;55.766;37.672;2024-03-08T04:50:45;4.43;;;2.08;;
61905;SDS011;47863;55.766;37.672;2024-03-08T04:53:11;2.35;;;1.30;;
61905;SDS011;47863;55.766;37.672;2024-03-08T04:55:37;4.75;;;2.28;;
61905;SDS011;47863;55.766;37.672;2024-03-08T04:58:03;2.85;;;1.55;;
61905;SDS011;47863;55.766;37.672;2024-03-08T05:00:31;3.05;;;1.65;;
61905;SDS011;47863;55.766;37.672;2024-03-08T05:02:58;3.67;;;1.90;;
61905;SDS011;47863;55.766;37.672;2024-03-08T05:05:24;7.40;;;2.72;;
61905;SDS011;47863;55.766;37.672;2024-03-08T05:07:51;3.10;;;1.65;;
61905;SDS011;47863;55.766;37.672;2024-03-08T05:10:16;4.55;;;2.30;;
61905;SDS011;47863;55.766;37.672;2024-03-08T05:12:44;6.00;;;2.47;;
61905;SDS011;47863;55.766;37.672;2024-03-08T05:15:10;3.58;;;1.63;;
61905;SDS011;47863;55.766;37.672;2024-03-08T05:17:35;7.97;;;2.70;;
61905;SDS011;47863;55.766;37.672;2024-03-08T05:20:01;6.88;;;2.67;;
61905;SDS011;47863;55.766;37.672;2024-03-08T05:22:29;4.25;;;1.92;;
61905;SDS011;47863;55.766;37.672;2024-03-08T05:24:55;4.95;;;2.30;;
61905;SDS011;47863;55.766;37.672;2024-03-08T05:27:20;4.88;;;2.65;;
61905;SDS011;47863;55.766;37.672;2024-03-08T05:29:46;4.78;;;2.10;;
61905;SDS011;47863;55.766;37.672;2024-03-08T05:32:12;6.18;;;1.95;;
61905;SDS011;47863;55.766;37.672;2024-03-08T05:34:37;5.72;;;2.95;;
61905;SDS011;47863;55.766;37.672;2024-03-08T05:37:03;7.75;;;2.85;;
61905;SDS011;47863;55.766;37.672;2024-03-08T05:39:29;8.10;;;2.67;;
61905;SDS011;47863;55.766;37.672;2024-03-08T05:41:55;5.90;;;2.55;;
61905;SDS011;47863;55.766;37.672;2024-03-08T05:44:21;9.00;;;3.05;;
61905;SDS011;47863;55.766;37.672;2024-03-08T05:46:47;4.50;;;2.00;;
61905;SDS011;47863;55.766;37.672;2024-03-08T05:49:12;3.08;;;1.73;;
61905;SDS011;47863;55.766;37.672;2024-03-08T05:51:39;4.43;;;2.03;;
61905;SDS011;47863;55.766;37.672;2024-03-08T05:54:11;3.55;;;1.83;;
61905;SDS011;47863;55.766;37.672;2024-03-08T05:56:38;2.88;;;1.30;;
61905;SDS011;47863;55.766;37.672;2024-03-08T05:59:06;3.92;;;1.65;;
61905;SDS011;47863;55.766;37.672;2024-03-08T06:01:31;7.38;;;2.95;;
61905;SDS011;47863;55.766;37.672;2024-03-08T06:03:58;7.15;;;2.53;;
61905;SDS011;47863;55.766;37.672;2024-03-08T06:06:24;6.28;;;2.75;;
61905;SDS011;47863;55.766;37.672;2024-03-08T06:08:50;6.20;;;2.92;;
61905;SDS011;47863;55.766;37.672;2024-03-08T06:11:16;4.93;;;1.85;;
61905;SDS011;47863;55.766;37.672;2024-03-08T06:13:43;4.05;;;1.50;;
61905;SDS011;47863;55.766;37.672;2024-03-08T06:16:09;3.80;;;1.80;;
61905;SDS011;47863;55.766;37.672;2024-03-08T06:18:35;8.68;;;3.10;;
61905;SDS011;47863;55.766;37.672;2024-03-08T06:21:07;5.93;;;2.10;;
61905;SDS011;47863;55.766;37.672;2024-03-08T06:23:37;4.32;;;1.65;;
61905;SDS011;47863;55.766;37.672;2024-03-08T06:26:06;6.82;;;2.88;;
61905;SDS011;47863;55.766;37.672;2024-03-08T06:28:32;5.80;;;2.10;;
61905;SDS011;47863;55.766;37.672;2024-03-08T06:31:01;3.72;;;1.75;;
61905;SDS011;47863;55.766;37.672;2024-03-08T06:33:28;4.70;;;2.05;;
61905;SDS011;47863;55.766;37.672;2024-03-08T06:35:54;5.00;;;1.90;;
61905;SDS011;47863;55.766;37.672;2024-03-08T06:38:25;5.32;;;2.22;;
61905;SDS011;47863;55.766;37.672;2024-03-08T06:40:51;4.20;;;1.77;;
61905;SDS011;47863;55.766;37.672;2024-03-08T06:43:17;3.70;;;2.00;;
61905;SDS011;47863;55.766;37.672;2024-03-08T06:45:44;3.40;;;1.63;;
61905;SDS011;47863;55.766;37.672;2024-03-08T06:48:17;6.10;;;2.70;;
61905;SDS011;47863;55.766;37.672;2024-03-08T06:50:47;3.05;;;1.55;;
61905;SDS011;47863;55.766;37.672;2024-03-08T06:53:13;4.68;;;2.38;;
61905;SDS011;47863;55.766;37.672;2024-03-08T06:55:42;3.90;;;1.90;;
61905;SDS011;47863;55.766;37.672;2024-03-08T06:58:07;5.30;;;2.40;;
61905;SDS011;47863;55.766;37.672;2024-03-08T07:00:33;7.47;;;2.42;;
61905;SDS011;47863;55.766;37.672;2024-03-08T07:02:59;5.70;;;3.17;;
61905;SDS011;47863;55.766;37.672;2024-03-08T07:05:26;7.80;;;2.35;;
61905;SDS011;47863;55.766;37.672;2024-03-08T07:07:53;5.13;;;1.85;;
61905;SDS011;47863;55.766;37.672;2024-03-08T07:10:23;4.63;;;2.25;;
61905;SDS011;47863;55.766;37.672;2024-03-08T07:12:50;7.78;;;3.47;;
61905;SDS011;47863;55.766;37.672;2024-03-08T07:15:16;8.27;;;2.78;;
61905;SDS011;47863;55.766;37.672;2024-03-08T07:17:45;6.47;;;2.90;;
61905;SDS011;47863;55.766;37.672;2024-03-08T07:20:12;6.53;;;2.63;;
61905;SDS011;47863;55.766;37.672;2024-03-08T07:22:39;4.75;;;1.85;;
61905;SDS011;47863;55.766;37.672;2024-03-08T07:25:05;7.47;;;3.22;;
61905;SDS011;47863;55.766;37.672;2024-03-08T07:27:43;5.18;;;2.13;;
61905;SDS011;47863;55.766;37.672;2024-03-08T07:30:09;4.93;;;2.22;;
61905;SDS011;47863;55.766;37.672;2024-03-08T07:32:35;5.03;;;2.25;;
61905;SDS011;47863;55.766;37.672;2024-03-08T07:35:01;5.20;;;2.17;;
61905;SDS011;47863;55.766;37.672;2024-03-08T07:37:29;6.22;;;2.67;;
61905;SDS011;47863;55.766;37.672;2024-03-08T07:39:54;6.18;;;2.70;;
61905;SDS011;47863;55.766;37.672;2024-03-08T07:42:20;7.95;;;3.17;;
61905;SDS011;47863;55.766;37.672;2024-03-08T07:44:46;5.13;;;2.35;;
61905;SDS011;47863;55.766;37.672;2024-03-08T07:47:13;3.65;;;2.17;;
61905;SDS011;47863;55.766;37.672;2024-03-08T07:49:39;4.70;;;2.22;;
61905;SDS011;47863;55.766;37.672;2024-03-08T07:52:05;6.38;;;2.70;;
61905;SDS011;47863;55.766;37.672;2024-03-08T07:54:32;6.70;;;2.55;;
61905;SDS011;47863;55.766;37.672;2024-03-08T07:56:59;6.53;;;2.35;;
61905;SDS011;47863;55.766;37.672;2024-03-08T07:59:24;7.93;;;2.47;;
61905;SDS011;47863;55.766;37.672;2024-03-08T08:01:50;5.10;;;2.30;;
61905;SDS011;47863;55.766;37.672;2024-03-08T08:04:16;6.00;;;2.85;;
61905;SDS011;47863;55.766;37.672;2024-03-08T08:06:43;6.28;;;3.55;;
61905;SDS011;47863;55.766;37.672;2024-03-08T08:09:09;5.68;;;2.67;;
61905;SDS011;47863;55.766;37.672;2024-03-08T08:11:47;7.30;;;2.75;;
61905;SDS011;47863;55.766;37.672;2024-03-08T08:14:13;4.75;;;2.22;;
61905;SDS011;47863;55.766;37.672;2024-03-08T08:16:39;3.88;;;1.95;;
61905;SDS011;47863;55.766;37.672;2024-03-08T08:19:08;6.32;;;2.83;;
61905;SDS011;47863;55.766;37.672;2024-03-08T08:21:36;7.78;;;3.40;;
61905;SDS011;47863;55.766;37.672;2024-03-08T08:24:02;5.95;;;2.50;;
61905;SDS011;47863;55.766;37.672;2024-03-08T08:26:28;4.57;;;2.40;;
61905;SDS011;47863;55.766;37.672;2024-03-08T08:28:55;5.20;;;2.40;;
61905;SDS011;47863;55.766;37.672;2024-03-08T08:31:20;5.72;;;2.63;;
61905;SDS011;47863;55.766;37.672;2024-03-08T08:33:46;6.22;;;2.90;;
61905;SDS011;47863;55.766;37.672;2024-03-08T08:36:14;6.28;;;2.90;;
61905;SDS011;47863;55.766;37.672;2024-03-08T08:38:40;7.47;;;3.13;;
61905;SDS011;47863;55.766;37.672;2024-03-08T08:41:09;6.90;;;3.35;;
61905;SDS011;47863;55.766;37.672;2024-03-08T08:43:38;4.90;;;2.53;;
61905;SDS011;47863;55.766;37.672;2024-03-08T08:46:04;7.53;;;3.75;;
61905;SDS011;47863;55.766;37.672;2024-03-08T08:48:30;6.28;;;2.75;;
61905;SDS011;47863;55.766;37.672;2024-03-08T08:50:56;6.38;;;2.85;;
61905;SDS011;47863;55.766;37.672;2024-03-08T08:53:21;4.93;;;2.53;;
61905;SDS011;47863;55.766;37.672;2024-03-08T08:55:47;8.13;;;3.55;;
61905;SDS011;47863;55.766;37.672;2024-03-08T08:58:13;8.57;;;3.50;;
61905;SDS011;47863;55.766;37.672;2024-03-08T09:00:39;5.43;;;2.42;;
61905;SDS011;47863;55.766;37.672;2024-03-08T09:03:05;5.97;;;2.25;;
61905;SDS011;47863;55.766;37.672;2024-03-08T09:05:32;6.72;;;2.67;;
61905;SDS011;47863;55.766;37.672;2024-03-08T09:07:59;5.55;;;2.60;;
61905;SDS011;47863;55.766;37.672;2024-03-08T09:10:26;8.05;;;3.67;;
61905;SDS011;47863;55.766;37.672;2024-03-08T09:12:53;6.63;;;3.38;;
61905;SDS011;47863;55.766;37.672;2024-03-08T09:15:18;6.22;;;2.92;;
61905;SDS011;47863;55.766;37.672;2024-03-08T09:17:46;5.00;;;2.53;;
61905;SDS011;47863;55.766;37.672;2024-03-08T09:20:13;4.28;;;1.70;;
61905;SDS011;47863;55.766;37.672;2024-03-08T09:22:43;6.15;;;2.70;;
61905;SDS011;47863;55.766;37.672;2024-03-08T09:25:09;4.88;;;2.35;;
61905;SDS011;47863;55.766;37.672;2024-03-08T09:27:35;6.45;;;2.70;;
61905;SDS011;47863;55.766;37.672;2024-03-08T09:30:01;5.68;;;2.83;;
61905;SDS011;47863;55.766;37.672;2024-03-08T09:32:29;6.68;;;3.25;;
61905;SDS011;47863;55.766;37.672;2024-03-08T09:34:55;5.97;;;2.88;;
61905;SDS011;47863;55.766;37.672;2024-03-08T09:37:21;5.40;;;2.83;;
61905;SDS011;47863;55.766;37.672;2024-03-08T09:39:47;6.00;;;3.05;;
61905;SDS011;47863;55.766;37.672;2024-03-08T09:42:14;5.05;;;2.42;;
61905;SDS011;47863;55.766;37.672;2024-03-08T09:44:44;6.75;;;2.92;;
61905;SDS011;47863;55.766;37.672;2024-03-08T09:47:14;5.60;;;2.83;;
61905;SDS011;47863;55.766;37.672;2024-03-08T09:49:40;5.55;;;2.80;;
61905;SDS011;47863;55.766;37.672;2024-03-08T09:52:07;5.32;;;2.30;;
61905;SDS011;47863;55.766;37.672;2024-03-08T09:54:33;6.70;;;2.97;;
61905;SDS011;47863;55.766;37.672;2024-03-08T09:56:59;8.63;;;3.67;;
61905;SDS011;47863;55.766;37.672;2024-03-08T09:59:25;6.15;;;2.60;;
61905;SDS011;47863;55.766;37.672;2024-03-08T10:02:08;5.35;;;2.50;;
61905;SDS011;47863;55.766;37.672;2024-03-08T10:04:40;6.03;;;2.95;;
61905;SDS011;47863;55.766;37.672;2024-03-08T10:07:07;7.60;;;3.25;;
61905;SDS011;47863;55.766;37.672;2024-03-08T10:09:33;6.75;;;3.17;;
61905;SDS011;47863;55.766;37.672;2024-03-08T10:11:58;6.50;;;2.60;;
61905;SDS011;47863;55.766;37.672;2024-03-08T10:14:27;5.43;;;2.53;;
61905;SDS011;47863;55.766;37.672;2024-03-08T10:16:53;7.10;;;2.72;;
61905;SDS011;47863;55.766;37.672;2024-03-08T10:19:19;5.53;;;2.55;;
61905;SDS011;47863;55.766;37.672;2024-03-08T10:21:48;6.63;;;3.20;;
61905;SDS011;47863;55.766;37.672;2024-03-08T10:24:14;6.95;;;3.17;;
61905;SDS011;47863;55.766;37.672;2024-03-08T10:26:40;8.13;;;3.67;;
61905;SDS011;47863;55.766;37.672;2024-03-08T10:29:08;4.70;;;2.28;;
61905;SDS011;47863;55.766;37.672;2024-03-08T10:31:34;6.53;;;3.42;;
61905;SDS011;47863;55.766;37.672;2024-03-08T10:34:00;7.05;;;3.05;;
61905;SDS011;47863;55.766;37.672;2024-03-08T10:36:26;5.53;;;2.85;;
61905;SDS011;47863;55.766;37.672;2024-03-08T10:38:53;4.95;;;2.67;;
61905;SDS011;47863;55.766;37.672;2024-03-08T10:41:24;6.47;;;2.88;;
61905;SDS011;47863;55.766;37.672;2024-03-08T10:48:55;4.47;;;2.40;;
61905;SDS011;47863;55.766;37.672;2024-03-08T10:51:28;5.85;;;2.03;;
61905;SDS011;47863;55.766;37.672;2024-03-08T10:53:56;5.80;;;3.05;;
61905;SDS011;47863;55.766;37.672;2024-03-08T10:56:24;5.85;;;2.60;;
61905;SDS011;47863;55.766;37.672;2024-03-08T10:58:53;6.72;;;3.08;;
61905;SDS011;47863;55.766;37.672;2024-03-08T11:01:20;6.28;;;3.65;;
61905;SDS011;47863;55.766;37.672;2024-03-08T11:03:47;7.03;;;3.13;;
61905;SDS011;47863;55.766;37.672;2024-03-08T11:06:22;6.43;;;3.20;;
61905;SDS011;47863;55.766;37.672;2024-03-08T11:08:55;4.82;;;2.08;;
61905;SDS011;47863;55.766;37.672;2024-03-08T11:11:26;7.10;;;3.45;;
61905;SDS011;47863;55.766;37.672;2024-03-08T11:13:57;7.20;;;3.47;;
61905;SDS011;47863;55.766;37.672;2024-03-08T11:21:56;7.40;;;3.40;;
61905;SDS011;47863;55.766;37.672;2024-03-08T11:24:23;8.07;;;3.45;;
61905;SDS011;47863;55.766;37.672;2024-03-08T11:26:49;8.45;;;3.40;;
61905;SDS011;47863;55.766;37.672;2024-03-08T11:32:21;8.82;;;4.43;;
61905;SDS011;47863;55.766;37.672;2024-03-08T11:34:48;5.50;;;2.97;;
61905;SDS011;47863;55.766;37.672;2024-03-08T11:37:19;7.00;;;3.20;;
61905;SDS011;47863;55.766;37.672;2024-03-08T11:39:49;6.28;;;2.88;;
61905;SDS011;47863;55.766;37.672;2024-03-08T11:42:16;6.20;;;3.20;;
61905;SDS011;47863;55.766;37.672;2024-03-08T11:44:43;7.30;;;3.88;;
61905;SDS011;47863;55.766;37.672;2024-03-08T11:47:13;7.10;;;2.90;;
61905;SDS011;47863;55.766;37.672;2024-03-08T11:49:40;5.88;;;2.85;;
61905;SDS011;47863;55.766;37.672;2024-03-08T11:52:16;5.80;;;3.10;;
61905;SDS011;47863;55.766;37.672;2024-03-08T11:54:42;6.38;;;3.03;;
61905;SDS011;47863;55.766;37.672;2024-03-08T11:57:22;5.88;;;2.92;;
61905;SDS011;47863;55.766;37.672;2024-03-08T11:59:51;5.43;;;2.50;;
61905;SDS011;47863;55.766;37.672;2024-03-08T12:02:17;8.10;;;4.00;;
61905;SDS011;47863;55.766;37.672;2024-03-08T12:04:44;7.18;;;3.10;;
61905;SDS011;47863;55.766;37.672;2024-03-08T12:07:13;7.32;;;3.03;;
61905;SDS011;47863;55.766;37.672;2024-03-08T12:09:42;6.45;;;3.17;;
61905;SDS011;47863;55.766;37.672;2024-03-08T12:12:11;7.93;;;4.03;;
61905;SDS011;47863;55.766;37.672;2024-03-08T12:14:37;5.72;;;2.30;;
61905;SDS011;47863;55.766;37.672;2024-03-08T12:17:04;7.03;;;3.08;;
61905;SDS011;47863;55.766;37.672;2024-03-08T12:19:30;6.32;;;2.90;;
61905;SDS011;47863;55.766;37.672;2024-03-08T12:21:56;4.97;;;2.55;;
61905;SDS011;47863;55.766;37.672;2024-03-08T12:24:22;6.72;;;3.13;;
61905;SDS011;47863;55.766;37.672;2024-03-08T12:26:48;7.10;;;2.88;;
61905;SDS011;47863;55.766;37.672;2024-03-08T12:29:26;7.32;;;3.55;;
61905;SDS011;47863;55.766;37.672;2024-03-08T12:31:54;8.75;;;3.97;;
61905;SDS011;47863;55.766;37.672;2024-03-08T12:34:23;9.20;;;3.55;;
61905;SDS011;47863;55.766;37.672;2024-03-08T12:36:50;7.82;;;3.63;;
61905;SDS011;47863;55.766;37.672;2024-03-08T12:39:19;6.57;;;3.17;;
61905;SDS011;47863;55.766;37.672;2024-03-08T12:41:52;7.65;;;3.58;;
61905;SDS011;47863;55.766;37.672;2024-03-08T12:44:19;5.50;;;2.92;;
61905;SDS011;47863;55.766;37.672;2024-03-08T12:46:50;6.45;;;2.97;;
61905;SDS011;47863;55.766;37.672;2024-03-08T12:49:16;6.05;;;3.00;;
61905;SDS011;47863;55.766;37.672;2024-03-08T12:51:47;7.90;;;4.00;;
61905;SDS011;47863;55.766;37.672;2024-03-08T12:54:13;6.00;;;2.72;;
61905;SDS011;47863;55.766;37.672;2024-03-08T12:56:39;5.45;;;2.83;;
61905;SDS011;47863;55.766;37.672;2024-03-08T12:59:06;4.32;;;2.28;;
61905;SDS011;47863;55.766;37.672;2024-03-08T13:01:33;8.82;;;4.13;;
61905;SDS011;47863;55.766;37.672;2024-03-08T13:04:02;7.72;;;3.08;;
61905;SDS011;47863;55.766;37.672;2024-03-08T13:06:29;4.68;;;2.53;;
61905;SDS011;47863;55.766;37.672;2024-03-08T13:08:56;8.20;;;3.42;;
61905;SDS011;47863;55.766;37.672;2024-03-08T13:11:23;4.80;;;2.47;;
61905;SDS011;47863;55.766;37.672;2024-03-08T13:13:49;5.57;;;2.70;;
61905;SDS011;47863;55.766;37.672;2024-03-08T13:16:15;5.13;;;2.97;;
61905;SDS011;47863;55.766;37.672;2024-03-08T13:18:42;7.55;;;3.33;;
61905;SDS011;47863;55.766;37.672;2024-03-08T13:21:08;6.30;;;3.20;;
61905;SDS011;47863;55.766;37.672;2024-03-08T13:23:35;6.63;;;3.17;;
61905;SDS011;47863;55.766;37.672;2024-03-08T13:26:09;11.15;;;4.38;;
61905;SDS011;47863;55.766;37.672;2024-03-08T13:28:42;6.47;;;2.92;;
61905;SDS011;47863;55.766;37.672;2024-03-08T13:31:10;6.18;;;2.78;;
61905;SDS011;47863;55.766;37.672;2024-03-08T13:33:39;8.63;;;2.75;;
61905;SDS011;47863;55.766;37.672;2024-03-08T13:36:06;6.65;;;2.80;;
61905;SDS011;47863;55.766;37.672;2024-03-08T13:38:40;6.85;;;3.00;;
61905;SDS011;47863;55.766;37.672;2024-03-08T13:41:12;7.28;;;3.65;;
61905;SDS011;47863;55.766;37.672;2024-03-08T13:43:40;6.97;;;3.10;;
61905;SDS011;47863;55.766;37.672;2024-03-08T13:46:06;7.10;;;3.15;;
61905;SDS011;47863;55.766;37.672;2024-03-08T13:48:33;5.80;;;2.88;;
61905;SDS011;47863;55.766;37.672;2024-03-08T13:50:58;5.97;;;2.78;;
61905;SDS011;47863;55.766;37.672;2024-03-08T13:53:25;6.70;;;3.03;;
61905;SDS011;47863;55.766;37.672;2024-03-08T13:55:51;6.57;;;2.78;;
61905;SDS011;47863;55.766;37.672;2024-03-08T13:58:17;4.60;;;2.33;;
61905;SDS011;47863;55.766;37.672;2024-03-08T14:00:43;6.72;;;2.38;;
61905;SDS011;47863;55.766;37.672;2024-03-08T14:03:11;5.05;;;2.63;;
61905;SDS011;47863;55.766;37.672;2024-03-08T14:05:39;5.15;;;2.33;;
61905;SDS011;47863;55.766;37.672;2024-03-08T14:08:06;5.65;;;2.35;;
61905;SDS011;47863;55.766;37.672;2024-03-08T14:10:33;5.13;;;2.17;;
61905;SDS011;47863;55.766;37.672;2024-03-08T14:12:59;5.57;;;2.40;;
61905;SDS011;47863;55.766;37.672;2024-03-08T14:15:26;3.95;;;1.90;;
61905;SDS011;47863;55.766;37.672;2024-03-08T14:17:52;4.00;;;2.20;;
61905;SDS011;47863;55.766;37.672;2024-03-08T14:20:18;5.93;;;2.63;;
61905;SDS011;47863;55.766;37.672;2024-03-08T14:22:44;7.47;;;2.83;;
61905;SDS011;47863;55.766;37.672;2024-03-08T14:25:09;5.70;;;2.83;;
61905;SDS011;47863;55.766;37.672;2024-03-08T14:27:43;4.65;;;1.95;;
61905;SDS011;47863;55.766;37.672;2024-03-08T14:30:10;6.57;;;3.00;;
61905;SDS011;47863;55.766;37.672;2024-03-08T14:32:36;5.40;;;2.55;;
61905;SDS011;47863;55.766;37.672;2024-03-08T14:35:04;5.18;;;2.55;;
61905;SDS011;47863;55.766;37.672;2024-03-08T14:37:30;7.20;;;3.17;;
61905;SDS011;47863;55.766;37.672;2024-03-08T14:39:56;5.40;;;2.45;;
61905;SDS011;47863;55.766;37.672;2024-03-08T14:42:21;6.22;;;2.60;;
61905;SDS011;47863;55.766;37.672;2024-03-08T14:44:48;6.32;;;2.38;;
61905;SDS011;47863;55.766;37.672;2024-03-08T14:47:18;9.77;;;2.70;;
61905;SDS011;47863;55.766;37.672;2024-03-08T14:49:44;5.88;;;2.22;;
61905;SDS011;47863;55.766;37.672;2024-03-08T14:52:09;8.40;;;2.97;;